createdAt,value
2016-05-07T00:00:59.687Z,0
2016-05-07T00:01:59.736Z,0
2016-05-07T00:02:59.754Z,0
2016-05-07T00:03:59.804Z,0
2016-05-07T00:04:59.837Z,0
2016-05-07T00:05:59.887Z,0
2016-05-07T00:06:59.922Z,0
2016-05-07T00:07:59.971Z,0
2016-05-07T00:09:00.005Z,0
2016-05-07T00:10:00.055Z,0
2016-05-07T00:11:00.088Z,0
2016-05-07T00:12:01.826Z,0
2016-05-07T00:13:00.188Z,0
2016-05-07T00:14:00.205Z,0
2016-05-07T00:15:00.240Z,0
2016-05-07T00:16:00.289Z,0
2016-05-07T00:17:00.182Z,0
2016-05-07T00:18:00.216Z,0
2016-05-07T00:19:00.266Z,0
2016-05-07T00:20:00.644Z,0
2016-05-07T00:21:00.491Z,0
2016-05-07T00:22:00.524Z,0
2016-05-07T00:23:00.574Z,0
2016-05-07T00:24:00.623Z,0
2016-05-07T00:25:00.641Z,0
2016-05-07T00:26:00.691Z,0
2016-05-07T00:27:00.741Z,0
2016-05-07T00:28:00.774Z,0
2016-05-07T00:29:00.809Z,0
2016-05-07T00:30:00.686Z,0
2016-05-07T00:31:00.924Z,0
2016-05-07T00:32:00.926Z,0
2016-05-07T00:33:00.820Z,0
2016-05-07T00:34:01.009Z,0
2016-05-07T00:35:01.059Z,0
2016-05-07T00:36:01.093Z,0
2016-05-07T00:37:01.142Z,0
2016-05-07T00:38:01.177Z,0
2016-05-07T00:39:01.226Z,0
2016-05-07T00:40:01.245Z,0
2016-05-07T00:41:01.294Z,0
2016-05-07T00:42:01.500Z,0
2016-05-07T00:43:01.377Z,0
2016-05-07T00:44:01.271Z,0
2016-05-07T00:45:01.461Z,0
2016-05-07T00:46:01.511Z,0
2016-05-07T00:47:01.388Z,0
2016-05-07T00:48:01.422Z,0
2016-05-07T00:49:01.472Z,0
2016-05-07T00:50:01.662Z,0
2016-05-07T00:51:01.540Z,0
2016-05-07T00:52:01.589Z,0
2016-05-07T00:53:01.623Z,0
2016-05-07T00:54:01.673Z,0
2016-05-07T00:55:01.863Z,0
2016-05-07T00:56:01.897Z,0
2016-05-07T00:57:02.853Z,0
2016-05-07T00:58:01.995Z,0
2016-05-07T00:59:02.030Z,0
2016-05-07T01:00:01.907Z,0
2016-05-07T01:01:02.113Z,0
2016-05-07T01:02:02.162Z,0
2016-05-07T01:03:02.197Z,0
2016-05-07T01:04:02.075Z,0
2016-05-07T01:05:02.265Z,0
2016-05-07T01:06:02.315Z,0
2016-05-07T01:07:02.348Z,0
2016-05-07T01:08:02.398Z,0
2016-05-07T01:09:02.431Z,0
2016-05-07T01:10:02.481Z,0
2016-05-07T01:11:02.515Z,0
2016-05-07T01:12:02.753Z,0
2016-05-07T01:13:02.614Z,0
2016-05-07T01:14:02.633Z,0
2016-05-07T01:15:02.370Z,0
2016-05-07T01:16:02.716Z,0
2016-05-07T01:17:02.750Z,0
2016-05-07T01:18:02.784Z,0
2016-05-07T01:19:02.833Z,0
2016-05-07T01:20:02.883Z,0
2016-05-07T01:21:02.916Z,0
2016-05-07T01:22:02.811Z,0
2016-05-07T01:23:02.844Z,0
2016-05-07T01:24:03.035Z,0
2016-05-07T01:25:03.068Z,0
2016-05-07T01:26:03.119Z,0
2016-05-07T01:27:03.292Z,0
2016-05-07T01:28:03.202Z,0
2016-05-07T01:29:03.080Z,0
2016-05-07T01:30:03.270Z,0
2016-05-07T01:31:03.318Z,0
2016-05-07T01:32:03.369Z,0
2016-05-07T01:33:03.403Z,0
2016-05-07T01:34:03.296Z,0
2016-05-07T01:35:03.487Z,0
2016-05-07T01:36:03.520Z,0
2016-05-07T01:37:03.554Z,0
2016-05-07T01:38:03.619Z,0
2016-05-07T01:39:03.637Z,0
2016-05-07T01:40:03.672Z,0
2016-05-07T01:41:03.774Z,0
2016-05-07T01:42:03.623Z,0
2016-05-07T01:43:03.848Z,0
2016-05-07T01:44:03.844Z,0
2016-05-07T01:45:03.897Z,0
2016-05-07T01:46:03.931Z,0
2016-05-07T01:47:03.949Z,0
2016-05-07T01:48:04.015Z,0
2016-05-07T01:49:04.032Z,0
2016-05-07T01:50:04.081Z,0
2016-05-07T01:51:03.976Z,0
2016-05-07T01:52:04.165Z,0
2016-05-07T01:53:04.058Z,0
2016-05-07T01:54:04.250Z,0
2016-05-07T01:55:04.142Z,0
2016-05-07T01:56:04.317Z,0
2016-05-07T01:57:04.508Z,0
2016-05-07T01:58:04.400Z,0
2016-05-07T01:59:04.450Z,0
2016-05-07T02:00:04.328Z,0
2016-05-07T02:01:04.533Z,0
2016-05-07T02:02:04.427Z,0
2016-05-07T02:03:04.617Z,0
2016-05-07T02:04:04.651Z,0
2016-05-07T02:05:04.700Z,0
2016-05-07T02:06:04.735Z,0
2016-05-07T02:07:04.769Z,0
2016-05-07T02:08:04.818Z,0
2016-05-07T02:09:04.852Z,0
2016-05-07T02:10:04.901Z,0
2016-05-07T02:11:04.920Z,0
2016-05-07T02:12:05.016Z,0
2016-05-07T02:13:05.019Z,0
2016-05-07T02:14:05.053Z,0
2016-05-07T02:15:05.087Z,0
2016-05-07T02:16:05.136Z,0
2016-05-07T02:17:05.030Z,0
2016-05-07T02:18:05.064Z,0
2016-05-07T02:19:05.254Z,0
2016-05-07T02:20:05.131Z,0
2016-05-07T02:21:05.181Z,0
2016-05-07T02:22:05.370Z,0
2016-05-07T02:23:05.437Z,0
2016-05-07T02:24:05.314Z,0
2016-05-07T02:25:05.492Z,0
2016-05-07T02:26:05.557Z,0
2016-05-07T02:27:05.794Z,0
2016-05-07T02:28:05.625Z,0
2016-05-07T02:29:05.659Z,0
2016-05-07T02:30:05.709Z,0
2016-05-07T02:31:05.430Z,0
2016-05-07T02:32:05.775Z,0
2016-05-07T02:33:05.825Z,0
2016-05-07T02:34:05.860Z,0
2016-05-07T02:35:05.737Z,0
2016-05-07T02:36:05.944Z,8
2016-05-07T02:37:05.977Z,12
2016-05-07T02:38:06.010Z,12
2016-05-07T02:39:06.061Z,16
2016-05-07T02:40:06.111Z,12
2016-05-07T02:41:06.144Z,16
2016-05-07T02:42:06.194Z,16
2016-05-07T02:43:06.212Z,16
2016-05-07T02:44:06.261Z,16
2016-05-07T02:45:06.296Z,0
2016-05-07T02:46:06.346Z,0
2016-05-07T02:47:06.394Z,0
2016-05-07T02:48:06.429Z,0
2016-05-07T02:49:06.462Z,0
2016-05-07T02:50:06.496Z,0
2016-05-07T02:51:06.546Z,0
2016-05-07T02:52:06.580Z,0
2016-05-07T02:53:06.629Z,0
2016-05-07T02:54:06.679Z,0
2016-05-07T02:55:06.698Z,0
2016-05-07T02:56:06.747Z,0
2016-05-07T02:57:07.156Z,0
2016-05-07T02:58:06.831Z,0
2016-05-07T02:59:06.864Z,0
2016-05-07T03:00:06.914Z,0
2016-05-07T03:01:06.948Z,0
2016-05-07T03:02:06.981Z,0
2016-05-07T03:03:06.875Z,0
2016-05-07T03:04:07.065Z,0
2016-05-07T03:05:07.115Z,0
2016-05-07T03:06:07.149Z,0
2016-05-07T03:07:07.198Z,0
2016-05-07T03:08:07.232Z,0
2016-05-07T03:09:07.266Z,0
2016-05-07T03:10:07.316Z,0
2016-05-07T03:11:07.350Z,0
2016-05-07T03:12:07.961Z,0
2016-05-07T03:13:07.433Z,0
2016-05-07T03:14:07.466Z,0
2016-05-07T03:15:07.502Z,0
2016-05-07T03:16:07.566Z,0
2016-05-07T03:17:07.600Z,0
2016-05-07T03:18:07.634Z,0
2016-05-07T03:19:07.668Z,0
2016-05-07T03:20:07.717Z,0
2016-05-07T03:21:07.596Z,0
2016-05-07T03:22:07.629Z,0
2016-05-07T03:23:07.835Z,0
2016-05-07T03:24:07.712Z,0
2016-05-07T03:25:07.763Z,0
2016-05-07T03:26:07.953Z,0
2016-05-07T03:27:08.221Z,0
2016-05-07T03:28:08.036Z,0
2016-05-07T03:29:08.070Z,0
2016-05-07T03:30:08.119Z,0
2016-05-07T03:31:08.170Z,0
2016-05-07T03:32:08.187Z,0
2016-05-07T03:33:08.237Z,0
2016-05-07T03:34:08.302Z,0
2016-05-07T03:35:08.321Z,0
2016-05-07T03:36:08.355Z,0
2016-05-07T03:37:08.404Z,0
2016-05-07T03:38:08.438Z,4
2016-05-07T03:39:08.472Z,4
2016-05-07T03:40:08.521Z,4
2016-05-07T03:41:08.572Z,4
2016-05-07T03:42:08.824Z,4
2016-05-07T03:43:08.638Z,0
2016-05-07T03:44:08.688Z,0
2016-05-07T03:45:08.707Z,0
2016-05-07T03:46:08.772Z,0
2016-05-07T03:47:08.806Z,0
2016-05-07T03:48:08.840Z,0
2016-05-07T03:49:08.874Z,0
2016-05-07T03:50:08.768Z,0
2016-05-07T03:51:08.957Z,0
2016-05-07T03:52:09.023Z,4
2016-05-07T03:53:09.040Z,4
2016-05-07T03:54:08.918Z,4
2016-05-07T03:55:09.140Z,4
2016-05-07T03:56:09.189Z,4
2016-05-07T03:57:09.224Z,4
2016-05-07T03:58:09.242Z,4
2016-05-07T03:59:09.276Z,4
2016-05-07T04:00:09.325Z,4
2016-05-07T04:01:09.375Z,4
2016-05-07T04:02:09.409Z,4
2016-05-07T04:03:09.442Z,0
2016-05-07T04:04:09.492Z,0
2016-05-07T04:05:09.370Z,0
2016-05-07T04:06:09.561Z,0
2016-05-07T04:07:09.609Z,4
2016-05-07T04:08:09.644Z,4
2016-05-07T04:09:09.381Z,4
2016-05-07T04:10:09.727Z,4
2016-05-07T04:11:09.777Z,4
2016-05-07T04:12:10.702Z,4
2016-05-07T04:13:09.844Z,4
2016-05-07T04:14:09.894Z,4
2016-05-07T04:15:09.928Z,4
2016-05-07T04:16:09.977Z,4
2016-05-07T04:17:09.855Z,4
2016-05-07T04:18:09.905Z,4
2016-05-07T04:19:10.096Z,4
2016-05-07T04:20:09.973Z,4
2016-05-07T04:21:10.179Z,4
2016-05-07T04:22:10.228Z,4
2016-05-07T04:23:10.277Z,8
2016-05-07T04:24:10.296Z,4
2016-05-07T04:25:10.330Z,4
2016-05-07T04:26:10.379Z,4
2016-05-07T04:27:10.429Z,4
2016-05-07T04:28:10.463Z,4
2016-05-07T04:29:10.497Z,4
2016-05-07T04:30:10.531Z,4
2016-05-07T04:31:10.424Z,4
2016-05-07T04:32:10.614Z,4
2016-05-07T04:33:10.679Z,4
2016-05-07T04:34:10.698Z,4
2016-05-07T04:35:10.747Z,4
2016-05-07T04:36:10.782Z,4
2016-05-07T04:37:10.815Z,8
2016-05-07T04:38:10.864Z,8
2016-05-07T04:39:10.900Z,8
2016-05-07T04:40:10.933Z,8
2016-05-07T04:41:10.997Z,8
2016-05-07T04:42:10.875Z,8
2016-05-07T04:43:11.082Z,4
2016-05-07T04:44:11.100Z,4
2016-05-07T04:45:11.149Z,4
2016-05-07T04:46:11.183Z,4
2016-05-07T04:47:11.077Z,4
2016-05-07T04:48:11.252Z,4
2016-05-07T04:49:11.301Z,4
2016-05-07T04:50:11.350Z,4
2016-05-07T04:51:11.385Z,8
2016-05-07T04:52:11.434Z,8
2016-05-07T04:53:11.312Z,8
2016-05-07T04:54:11.501Z,8
2016-05-07T04:55:11.551Z,8
2016-05-07T04:56:11.585Z,8
2016-05-07T04:57:11.838Z,4
2016-05-07T04:58:11.668Z,4
2016-05-07T04:59:11.734Z,4
2016-05-07T05:00:11.768Z,4
2016-05-07T05:01:11.818Z,8
2016-05-07T05:02:11.836Z,8
2016-05-07T05:03:11.870Z,8
2016-05-07T05:04:11.919Z,8
2016-05-07T05:05:11.954Z,8
2016-05-07T05:06:12.003Z,8
2016-05-07T05:07:12.036Z,8
2016-05-07T05:08:12.070Z,8
2016-05-07T05:09:12.120Z,8
2016-05-07T05:10:12.170Z,4
2016-05-07T05:11:12.189Z,4
2016-05-07T05:12:13.269Z,4
2016-05-07T05:13:12.272Z,8
2016-05-07T05:14:12.321Z,8
2016-05-07T05:15:12.355Z,8
2016-05-07T05:16:12.405Z,8
2016-05-07T05:17:12.439Z,8
2016-05-07T05:18:12.472Z,8
2016-05-07T05:19:12.522Z,8
2016-05-07T05:20:12.556Z,8
2016-05-07T05:21:12.433Z,8
2016-05-07T05:22:12.641Z,8
2016-05-07T05:23:12.674Z,8
2016-05-07T05:24:12.723Z,4
2016-05-07T05:25:12.773Z,8
2016-05-07T05:26:12.807Z,8
2016-05-07T05:27:13.184Z,8
2016-05-07T05:28:12.874Z,12
2016-05-07T05:29:12.924Z,8
2016-05-07T05:30:12.802Z,8
2016-05-07T05:31:13.007Z,12
2016-05-07T05:32:13.042Z,12
2016-05-07T05:33:13.076Z,8
2016-05-07T05:34:12.968Z,8
2016-05-07T05:35:13.175Z,12
2016-05-07T05:36:13.209Z,12
2016-05-07T05:37:13.242Z,12
2016-05-07T05:38:13.292Z,8
2016-05-07T05:39:13.326Z,12
2016-05-07T05:40:13.219Z,12
2016-05-07T05:41:13.410Z,12
2016-05-07T05:42:14.381Z,12
2016-05-07T05:43:13.492Z,12
2016-05-07T05:44:13.528Z,12
2016-05-07T05:45:13.592Z,12
2016-05-07T05:46:13.611Z,12
2016-05-07T05:47:13.488Z,12
2016-05-07T05:48:13.678Z,12
2016-05-07T05:49:13.728Z,12
2016-05-07T05:50:13.777Z,12
2016-05-07T05:51:13.811Z,16
2016-05-07T05:52:13.846Z,16
2016-05-07T05:53:28.036Z,12
2016-05-07T05:54:13.929Z,16
2016-05-07T05:55:13.822Z,12
2016-05-07T05:56:14.013Z,12
2016-05-07T05:57:14.062Z,16
2016-05-07T05:58:14.080Z,16
2016-05-07T05:59:14.130Z,16
2016-05-07T06:00:14.008Z,16
2016-05-07T06:01:14.213Z,16
2016-05-07T06:02:14.263Z,16
2016-05-07T06:03:14.296Z,16
2016-05-07T06:04:14.331Z,16
2016-05-07T06:05:14.381Z,12
2016-05-07T06:06:14.430Z,16
2016-05-07T06:07:14.448Z,16
2016-05-07T06:08:14.498Z,16
2016-05-07T06:09:14.392Z,16
2016-05-07T06:10:14.426Z,12
2016-05-07T06:11:14.615Z,16
2016-05-07T06:12:16.039Z,16
2016-05-07T06:13:14.698Z,12
2016-05-07T06:14:14.733Z,16
2016-05-07T06:15:14.783Z,12
2016-05-07T06:16:14.832Z,12
2016-05-07T06:17:14.866Z,12
2016-05-07T06:18:14.744Z,12
2016-05-07T06:19:14.794Z,12
2016-05-07T06:20:14.828Z,16
2016-05-07T06:21:15.345Z,16
2016-05-07T06:22:15.067Z,16
2016-05-07T06:23:15.069Z,16
2016-05-07T06:24:16.088Z,16
2016-05-07T06:25:15.185Z,12
2016-05-07T06:26:15.233Z,16
2016-05-07T06:27:15.783Z,16
2016-05-07T06:28:15.318Z,12
2016-05-07T06:29:15.351Z,16
2016-05-07T06:30:15.385Z,16
2016-05-07T06:31:15.278Z,16
2016-05-07T06:32:15.484Z,16
2016-05-07T06:33:15.550Z,16
2016-05-07T06:34:15.552Z,16
2016-05-07T06:35:15.586Z,16
2016-05-07T06:36:15.636Z,12
2016-05-07T06:37:15.670Z,16
2016-05-07T06:38:15.735Z,12
2016-05-07T06:39:15.753Z,16
2016-05-07T06:40:15.803Z,12
2016-05-07T06:41:15.837Z,16
2016-05-07T06:42:15.886Z,16
2016-05-07T06:43:15.920Z,12
2016-05-07T06:44:15.813Z,12
2016-05-07T06:45:16.003Z,16
2016-05-07T06:46:16.037Z,16
2016-05-07T06:47:16.072Z,16
2016-05-07T06:48:16.122Z,16
2016-05-07T06:49:16.858Z,12
2016-05-07T06:50:16.205Z,16
2016-05-07T06:51:16.239Z,16
2016-05-07T06:52:16.288Z,16
2016-05-07T06:53:16.166Z,16
2016-05-07T06:54:16.356Z,16
2016-05-07T06:55:16.249Z,16
2016-05-07T06:56:16.439Z,16
2016-05-07T06:57:17.332Z,16
2016-05-07T06:58:16.524Z,16
2016-05-07T06:59:16.432Z,16
2016-05-07T07:00:16.606Z,16
2016-05-07T07:01:16.656Z,16
2016-05-07T07:02:16.690Z,16
2016-05-07T07:03:16.724Z,16
2016-05-07T07:04:16.774Z,16
2016-05-07T07:05:16.807Z,16
2016-05-07T07:06:16.841Z,16
2016-05-07T07:07:16.890Z,16
2016-05-07T07:08:16.941Z,16
2016-05-07T07:09:16.974Z,16
2016-05-07T07:10:17.023Z,16
2016-05-07T07:11:16.902Z,16
2016-05-07T07:12:16.951Z,16
2016-05-07T07:13:17.142Z,16
2016-05-07T07:14:17.175Z,16
2016-05-07T07:15:17.225Z,16
2016-05-07T07:16:17.258Z,16
2016-05-07T07:17:17.137Z,16
2016-05-07T07:18:17.343Z,16
2016-05-07T07:19:17.376Z,16
2016-05-07T07:20:17.269Z,20
2016-05-07T07:21:17.460Z,16
2016-05-07T07:22:17.494Z,16
2016-05-07T07:23:17.544Z,16
2016-05-07T07:24:17.578Z,16
2016-05-07T07:25:17.611Z,20
2016-05-07T07:26:17.661Z,20
2016-05-07T07:27:18.116Z,20
2016-05-07T07:28:17.604Z,20
2016-05-07T07:29:17.777Z,16
2016-05-07T07:30:17.828Z,20
2016-05-07T07:31:17.878Z,16
2016-05-07T07:32:17.755Z,20
2016-05-07T07:33:17.929Z,20
2016-05-07T07:34:17.979Z,16
2016-05-07T07:35:18.029Z,16
2016-05-07T07:36:17.907Z,16
2016-05-07T07:37:18.113Z,20
2016-05-07T07:38:18.146Z,20
2016-05-07T07:39:18.040Z,20
2016-05-07T07:40:18.229Z,20
2016-05-07T07:41:18.279Z,20
2016-05-07T07:42:18.938Z,16
2016-05-07T07:43:18.348Z,20
2016-05-07T07:44:18.397Z,20
2016-05-07T07:45:18.431Z,20
2016-05-07T07:46:18.480Z,20
2016-05-07T07:47:18.514Z,16
2016-05-07T07:48:18.548Z,16
2016-05-07T07:49:18.598Z,20
2016-05-07T07:50:18.631Z,20
2016-05-07T07:51:18.681Z,20
2016-05-07T07:52:18.714Z,16
2016-05-07T07:53:18.765Z,20
2016-05-07T07:54:18.799Z,20
2016-05-07T07:55:18.848Z,20
2016-05-07T07:56:18.883Z,20
2016-05-07T07:57:18.791Z,20
2016-05-07T07:58:18.966Z,20
2016-05-07T07:59:18.999Z,20
2016-05-07T08:00:18.908Z,20
2016-05-07T08:01:18.927Z,20
2016-05-07T08:02:19.117Z,20
2016-05-07T08:03:19.010Z,24
2016-05-07T08:04:19.216Z,24
2016-05-07T08:05:19.249Z,20
2016-05-07T08:06:19.285Z,20
2016-05-07T08:07:19.177Z,20
2016-05-07T08:08:19.212Z,20
2016-05-07T08:09:19.417Z,20
2016-05-07T08:10:19.451Z,20
2016-05-07T08:11:19.485Z,20
2016-05-07T08:12:19.534Z,20
2016-05-07T08:13:19.568Z,24
2016-05-07T08:14:19.618Z,24
2016-05-07T08:15:19.495Z,20
2016-05-07T08:16:19.687Z,28
2016-05-07T08:17:19.642Z,28
2016-05-07T08:18:19.769Z,28
2016-05-07T08:19:19.819Z,24
2016-05-07T08:20:19.853Z,28
2016-05-07T08:21:19.903Z,28
2016-05-07T08:22:19.781Z,24
2016-05-07T08:23:19.970Z,20
2016-05-07T08:24:20.019Z,28
2016-05-07T08:25:20.053Z,28
2016-05-07T08:26:20.104Z,28
2016-05-07T08:27:20.138Z,28
2016-05-07T08:28:20.171Z,28
2016-05-07T08:29:20.226Z,28
2016-05-07T08:30:20.146Z,28
2016-05-07T08:31:20.240Z,28
2016-05-07T08:32:20.472Z,28
2016-05-07T08:33:20.409Z,28
2016-05-07T08:34:20.638Z,28
2016-05-07T08:35:20.703Z,28
2016-05-07T08:36:20.597Z,32
2016-05-07T08:37:20.803Z,28
2016-05-07T08:38:20.866Z,28
2016-05-07T08:39:20.915Z,28
2016-05-07T08:40:20.955Z,28
2016-05-07T08:41:21.010Z,28
2016-05-07T08:42:21.488Z,28
2016-05-07T08:43:21.105Z,28
2016-05-07T08:44:21.160Z,28
2016-05-07T08:45:21.196Z,28
2016-05-07T08:46:21.076Z,28
2016-05-07T08:47:21.268Z,28
2016-05-07T08:48:21.318Z,28
2016-05-07T08:49:21.371Z,28
2016-05-07T08:50:21.390Z,28
2016-05-07T08:51:21.455Z,28
2016-05-07T08:52:21.475Z,28
2016-05-07T08:53:21.525Z,28
2016-05-07T08:54:21.559Z,28
2016-05-07T08:55:21.593Z,28
2016-05-07T08:56:21.488Z,28
2016-05-07T08:57:21.366Z,32
2016-05-07T08:58:21.572Z,32
2016-05-07T08:59:21.763Z,32
2016-05-07T09:00:21.640Z,28
2016-05-07T09:01:21.861Z,28
2016-05-07T09:02:21.911Z,28
2016-05-07T09:03:21.945Z,32
2016-05-07T09:04:21.964Z,28
2016-05-07T09:05:21.997Z,32
2016-05-07T09:06:22.047Z,28
2016-05-07T09:07:22.081Z,28
2016-05-07T09:08:21.974Z,28
2016-05-07T09:09:22.008Z,32
2016-05-07T09:10:22.199Z,28
2016-05-07T09:11:22.248Z,28
2016-05-07T09:12:22.579Z,28
2016-05-07T09:13:22.347Z,32
2016-05-07T09:14:22.366Z,28
2016-05-07T09:15:22.415Z,28
2016-05-07T09:16:22.449Z,32
2016-05-07T09:17:22.498Z,28
2016-05-07T09:18:22.532Z,32
2016-05-07T09:19:22.567Z,32
2016-05-07T09:20:22.632Z,32
2016-05-07T09:21:22.650Z,32
2016-05-07T09:22:22.683Z,32
2016-05-07T09:23:22.734Z,32
2016-05-07T09:24:22.783Z,32
2016-05-07T09:25:22.801Z,32
2016-05-07T09:26:22.851Z,32
2016-05-07T09:27:23.338Z,32
2016-05-07T09:28:22.934Z,32
2016-05-07T09:29:22.953Z,32
2016-05-07T09:30:22.846Z,36
2016-05-07T09:31:22.896Z,36
2016-05-07T09:32:23.085Z,36
2016-05-07T09:33:23.135Z,36
2016-05-07T09:34:23.169Z,36
2016-05-07T09:35:23.203Z,36
2016-05-07T09:36:23.238Z,32
2016-05-07T09:37:23.146Z,36
2016-05-07T09:38:23.336Z,36
2016-05-07T09:39:23.370Z,36
2016-05-07T09:40:23.420Z,40
2016-05-07T09:41:23.454Z,36
2016-05-07T09:42:23.847Z,36
2016-05-07T09:43:23.537Z,36
2016-05-07T09:44:23.571Z,40
2016-05-07T09:45:23.621Z,40
2016-05-07T09:46:23.515Z,40
2016-05-07T09:47:23.704Z,40
2016-05-07T09:48:23.723Z,40
2016-05-07T09:49:23.772Z,44
2016-05-07T09:50:23.806Z,40
2016-05-07T09:51:23.856Z,44
2016-05-07T09:52:23.734Z,44
2016-05-07T09:53:23.939Z,44
2016-05-07T09:54:23.973Z,44
2016-05-07T09:55:24.022Z,44
2016-05-07T09:56:24.057Z,44
2016-05-07T09:57:24.106Z,48
2016-05-07T09:58:24.140Z,48
2016-05-07T09:59:24.174Z,48
2016-05-07T10:00:24.052Z,44
2016-05-07T10:01:24.258Z,44
2016-05-07T10:02:24.136Z,48
2016-05-07T10:03:24.341Z,40
2016-05-07T10:04:24.375Z,48
2016-05-07T10:05:24.425Z,52
2016-05-07T10:06:24.474Z,48
2016-05-07T10:07:24.493Z,48
2016-05-07T10:08:24.542Z,48
2016-05-07T10:09:24.576Z,48
2016-05-07T10:10:24.626Z,48
2016-05-07T10:11:24.660Z,40
2016-05-07T10:12:25.240Z,40
2016-05-07T10:13:24.587Z,40
2016-05-07T10:14:24.777Z,40
2016-05-07T10:15:24.826Z,40
2016-05-07T10:16:24.860Z,40
2016-05-07T10:17:24.895Z,40
2016-05-07T10:18:25.382Z,44
2016-05-07T10:19:24.821Z,44
2016-05-07T10:20:25.028Z,44
2016-05-07T10:21:25.062Z,44
2016-05-07T10:22:24.939Z,44
2016-05-07T10:23:25.144Z,52
2016-05-07T10:24:25.038Z,56
2016-05-07T10:25:25.213Z,56
2016-05-07T10:26:25.278Z,56
2016-05-07T10:27:25.155Z,60
2016-05-07T10:28:25.357Z,60
2016-05-07T10:29:25.375Z,60
2016-05-07T10:30:25.424Z,60
2016-05-07T10:31:25.318Z,64
2016-05-07T10:32:25.508Z,64
2016-05-07T10:33:25.542Z,64
2016-05-07T10:34:25.278Z,64
2016-05-07T10:35:25.626Z,52
2016-05-07T10:36:25.628Z,48
2016-05-07T10:37:25.708Z,52
2016-05-07T10:38:25.744Z,52
2016-05-07T10:39:25.792Z,56
2016-05-07T10:40:25.669Z,56
2016-05-07T10:41:25.860Z,56
2016-05-07T10:42:25.941Z,56
2016-05-07T10:43:25.944Z,60
2016-05-07T10:44:26.165Z,60
2016-05-07T10:45:26.027Z,60
2016-05-07T10:46:26.077Z,60
2016-05-07T10:47:25.954Z,60
2016-05-07T10:48:26.145Z,60
2016-05-07T10:49:26.194Z,60
2016-05-07T10:50:26.229Z,60
2016-05-07T10:51:26.262Z,60
2016-05-07T10:52:26.312Z,60
2016-05-07T10:53:26.346Z,64
2016-05-07T10:54:26.379Z,60
2016-05-07T10:55:26.429Z,64
2016-05-07T10:56:26.322Z,64
2016-05-07T10:57:26.920Z,68
2016-05-07T10:58:26.547Z,64
2016-05-07T10:59:26.439Z,64
2016-05-07T11:00:26.631Z,68
2016-05-07T11:01:26.680Z,72
2016-05-07T11:02:26.713Z,72
2016-05-07T11:03:26.778Z,72
2016-05-07T11:04:26.798Z,72
2016-05-07T11:05:26.862Z,72
2016-05-07T11:06:26.880Z,72
2016-05-07T11:07:26.915Z,72
2016-05-07T11:08:26.964Z,72
2016-05-07T11:09:27.013Z,76
2016-05-07T11:10:27.047Z,80
2016-05-07T11:11:27.066Z,80
2016-05-07T11:12:27.147Z,80
2016-05-07T11:13:27.149Z,80
2016-05-07T11:14:27.199Z,84
2016-05-07T11:15:27.249Z,84
2016-05-07T11:16:27.282Z,88
2016-05-07T11:17:27.176Z,84
2016-05-07T11:18:27.366Z,88
2016-05-07T11:19:27.400Z,88
2016-05-07T11:20:27.449Z,88
2016-05-07T11:21:27.484Z,88
2016-05-07T11:22:27.517Z,88
2016-05-07T11:23:27.551Z,92
2016-05-07T11:24:27.601Z,92
2016-05-07T11:25:27.651Z,92
2016-05-07T11:26:27.528Z,96
2016-05-07T11:27:27.718Z,100
2016-05-07T11:28:27.768Z,96
2016-05-07T11:29:27.801Z,100
2016-05-07T11:30:27.836Z,100
2016-05-07T11:31:27.886Z,96
2016-05-07T11:32:27.934Z,96
2016-05-07T11:33:27.970Z,100
2016-05-07T11:34:28.003Z,100
2016-05-07T11:35:28.053Z,104
2016-05-07T11:36:28.086Z,104
2016-05-07T11:37:28.119Z,104
2016-05-07T11:38:28.170Z,104
2016-05-07T11:39:28.203Z,104
2016-05-07T11:40:28.081Z,104
2016-05-07T11:41:28.287Z,104
2016-05-07T11:42:28.353Z,108
2016-05-07T11:43:28.371Z,108
2016-05-07T11:44:28.404Z,112
2016-05-07T11:45:28.455Z,120
2016-05-07T11:46:28.488Z,112
2016-05-07T11:47:28.538Z,120
2016-05-07T11:48:28.571Z,124
2016-05-07T11:49:28.621Z,128
2016-05-07T11:50:28.499Z,128
2016-05-07T11:51:28.690Z,132
2016-05-07T11:52:28.754Z,128
2016-05-07T11:53:28.616Z,132
2016-05-07T11:54:28.823Z,132
2016-05-07T11:55:28.856Z,132
2016-05-07T11:56:28.906Z,132
2016-05-07T11:57:28.830Z,136
2016-05-07T11:58:28.990Z,136
2016-05-07T11:59:29.007Z,140
2016-05-07T12:00:29.057Z,144
2016-05-07T12:01:29.122Z,144
2016-05-07T12:02:28.984Z,148
2016-05-07T12:03:29.175Z,144
2016-05-07T12:04:29.208Z,148
2016-05-07T12:05:29.273Z,152
2016-05-07T12:06:29.292Z,148
2016-05-07T12:07:29.342Z,148
2016-05-07T12:08:29.391Z,156
2016-05-07T12:09:29.425Z,156
2016-05-07T12:10:29.459Z,160
2016-05-07T12:11:29.336Z,164
2016-05-07T12:12:29.855Z,168
2016-05-07T12:13:29.577Z,172
2016-05-07T12:14:29.626Z,168
2016-05-07T12:15:29.519Z,172
2016-05-07T12:16:29.710Z,176
2016-05-07T12:17:29.743Z,164
2016-05-07T12:18:29.793Z,188
2016-05-07T12:19:29.827Z,192
2016-05-07T12:20:29.893Z,192
2016-05-07T12:21:29.895Z,192
2016-05-07T12:22:29.944Z,192
2016-05-07T12:23:29.994Z,188
2016-05-07T12:24:30.028Z,188
2016-05-07T12:25:29.906Z,188
2016-05-07T12:26:30.111Z,208
2016-05-07T12:27:30.162Z,212
2016-05-07T12:28:30.039Z,212
2016-05-07T12:29:30.260Z,216
2016-05-07T12:30:30.106Z,216
2016-05-07T12:31:30.312Z,216
2016-05-07T12:32:30.362Z,220
2016-05-07T12:33:30.239Z,212
2016-05-07T12:34:30.446Z,220
2016-05-07T12:35:30.478Z,224
2016-05-07T12:36:30.514Z,224
2016-05-07T12:37:30.547Z,228
2016-05-07T12:38:30.597Z,232
2016-05-07T12:39:30.630Z,236
2016-05-07T12:40:30.681Z,240
2016-05-07T12:41:30.714Z,244
2016-05-07T12:42:30.764Z,248
2016-05-07T12:43:30.797Z,252
2016-05-07T12:44:30.535Z,264
2016-05-07T12:45:30.897Z,260
2016-05-07T12:46:30.775Z,260
2016-05-07T12:47:30.793Z,252
2016-05-07T12:48:30.843Z,228
2016-05-07T12:49:31.049Z,252
2016-05-07T12:50:30.926Z,252
2016-05-07T12:51:31.116Z,256
2016-05-07T12:52:31.149Z,260
2016-05-07T12:53:31.074Z,260
2016-05-07T12:54:31.248Z,264
2016-05-07T12:55:31.283Z,264
2016-05-07T12:56:31.332Z,268
2016-05-07T12:57:31.554Z,268
2016-05-07T12:58:31.432Z,268
2016-05-07T12:59:31.435Z,272
2016-05-07T13:00:31.484Z,280
2016-05-07T13:01:31.518Z,284
2016-05-07T13:02:31.568Z,280
2016-05-07T13:03:31.617Z,288
2016-05-07T13:04:31.495Z,292
2016-05-07T13:05:31.700Z,296
2016-05-07T13:06:31.578Z,120
2016-05-07T13:07:31.769Z,36
2016-05-07T13:08:31.817Z,300
2016-05-07T13:09:31.852Z,296
2016-05-07T13:10:31.902Z,304
2016-05-07T13:11:31.936Z,308
2016-05-07T13:12:31.828Z,312
2016-05-07T13:13:32.019Z,316
2016-05-07T13:14:32.052Z,316
2016-05-07T13:15:32.103Z,320
2016-05-07T13:16:32.152Z,320
2016-05-07T13:17:32.170Z,324
2016-05-07T13:18:32.219Z,324
2016-05-07T13:19:32.254Z,324
2016-05-07T13:20:32.304Z,328
2016-05-07T13:21:32.337Z,328
2016-05-07T13:22:32.215Z,336
2016-05-07T13:23:32.265Z,344
2016-05-07T13:24:32.454Z,56
2016-05-07T13:25:32.348Z,340
2016-05-07T13:26:32.538Z,344
2016-05-07T13:27:32.588Z,352
2016-05-07T13:28:32.465Z,352
2016-05-07T13:29:32.656Z,360
2016-05-07T13:30:32.689Z,312
2016-05-07T13:31:32.583Z,48
2016-05-07T13:32:32.789Z,64
2016-05-07T13:33:32.667Z,376
2016-05-07T13:34:32.872Z,372
2016-05-07T13:35:32.906Z,372
2016-05-07T13:36:32.940Z,352
2016-05-07T13:37:32.990Z,352
2016-05-07T13:38:32.867Z,348
2016-05-07T13:39:33.073Z,344
2016-05-07T13:40:33.123Z,344
2016-05-07T13:41:33.156Z,336
2016-05-07T13:42:33.253Z,324
2016-05-07T13:43:33.241Z,316
2016-05-07T13:44:33.275Z,260
2016-05-07T13:45:33.308Z,292
2016-05-07T13:46:33.358Z,276
2016-05-07T13:47:33.391Z,256
2016-05-07T13:48:33.285Z,252
2016-05-07T13:49:33.475Z,248
2016-05-07T13:50:33.369Z,236
2016-05-07T13:51:33.558Z,164
2016-05-07T13:52:33.608Z,72
2016-05-07T13:53:33.486Z,100
2016-05-07T13:54:33.521Z,96
2016-05-07T13:55:33.726Z,88
2016-05-07T13:56:33.759Z,84
2016-05-07T13:57:33.824Z,76
2016-05-07T13:58:33.859Z,68
2016-05-07T13:59:33.876Z,64
2016-05-07T14:00:33.770Z,52
2016-05-07T14:01:33.804Z,52
2016-05-07T14:02:34.010Z,44
2016-05-07T14:03:34.059Z,44
2016-05-07T14:04:34.078Z,44
2016-05-07T14:05:34.128Z,40
2016-05-07T14:06:34.161Z,40
2016-05-07T14:07:34.212Z,40
2016-05-07T14:08:34.089Z,36
2016-05-07T14:09:34.295Z,40
2016-05-07T14:10:34.016Z,20
2016-05-07T14:11:34.222Z,32
2016-05-07T14:12:34.662Z,32
2016-05-07T14:13:34.462Z,28
2016-05-07T14:14:34.495Z,32
2016-05-07T14:15:34.530Z,36
2016-05-07T14:16:34.580Z,32
2016-05-07T14:17:34.458Z,36
2016-05-07T14:18:34.647Z,32
2016-05-07T14:19:34.696Z,32
2016-05-07T14:20:34.746Z,36
2016-05-07T14:21:34.780Z,36
2016-05-07T14:22:34.501Z,36
2016-05-07T14:23:34.863Z,36